LGKV Airport Information

Runway Information
Runway 05R Length 9844 ft width 148 ft
Elevation 11 ft Threshold 0 ft Heading 55
Runway 23L Length 9844 ft Width 148 ft
Elevation 18 ft Threshold 0 ft Heading 235
Airport Frequencies
Type A/G Name RDO Frequency 563.7 MHZ
Type APP Name KAVALA APP Frequency 122.1 MHZ
Type TWR Name TWR Frequency 118.4 MHZ
Airport Navaids
Type NDB Name Chrisoupolis Frequency 327 KHZ
Type VOR-DME Name Kavala Frequency 108800 KHZ
Type TACAN Name Kavala Frequency 114300 KHZ
Airport Weather Information & NOTAM
ADDS - METARS form results

(1856 UTC 17 February 2019)
Data provider http://aviationweather.gov/metar/data/
 
METAR text: LGKV 171850Z VRB03KT CAVOK 06/04 Q1025
Conditions at: LGKV (KAVALA/CHRISOUPO, GR) observed 1850 UTC 17 February 2019
Temperature: 6.0°C (43°F)
Dewpoint: 4.0°C (39°F) [RH = 87%]
Pressure (altimeter): 30.27 inches Hg (1025.0 mb)
Winds: variable direction winds at 3 MPH (3 knots; 1.5 m/s)
Visibility: 6 or more miles (10+ km)
Ceiling: ceiling and visibility are OK
Clouds: unknown
Weather: no significant weather observed at this time

METAR text: LGKV 171820Z VRB03KT CAVOK 07/04 Q1025
Conditions at: LGKV (KAVALA/CHRISOUPO, GR) observed 1820 UTC 17 February 2019
Temperature: 7.0°C (45°F)
Dewpoint: 4.0°C (39°F) [RH = 81%]
Pressure (altimeter): 30.27 inches Hg (1025.0 mb)
Winds: variable direction winds at 3 MPH (3 knots; 1.5 m/s)
Visibility: 6 or more miles (10+ km)
Ceiling: ceiling and visibility are OK
Clouds: unknown
Weather: no significant weather observed at this time

Forecast for: LGKV (KAVALA/CHRISOUPO, GR)
Text: TAF LGKV 171700Z 1718/1803 VRB05KT CAVOK
Forecast period: 1800 UTC 17 February 2019 to 0300 UTC 18 February 2019
Forecast type: FROM: standard forecast or significant change
Winds: variable direction winds at 6 MPH (5 knots; 2.6 m/s)
Visibility: 6 or more miles 10+ km)
Ceiling: unknown
Clouds: missing
Weather: NSW  (no significant weather)